DLH8RV EDDS-EDDF
Flight info
| Callsign | DLH8RV |
|---|---|
| Flight time | 0h 29m |
| Altitude | 21000 |
| Route | SPESA |
| Aircraft | A20N/M-SDE2E3FGHIRWXY/LB1 |
Departure
| Time | 2026-05-05 19:39 |
|---|---|
| Airport | Stuttgart Airport (EDDS) |
Arrival
| Time | 2026-05-05 20:09 |
|---|---|
| Airport | Frankfurt Main Airport (EDDF) |
| Time | Latitude | Longitude | Altitude | Speed | Heading |
|---|---|---|---|---|---|
| 2026-05-05 19:39 | 48.61898 | 9.24008 | 13798 ft | 374 kts | 73° |
| 2026-05-05 19:39 | 48.63110 | 9.27536 | 13830 ft | 380 kts | 52° |
| 2026-05-05 19:39 | 48.65031 | 9.30257 | 13844 ft | 378 kts | 31° |
| 2026-05-05 19:40 | 48.67426 | 9.31767 | 14243 ft | 378 kts | 8° |
| 2026-05-05 19:40 | 48.70017 | 9.31896 | 15191 ft | 370 kts | 348° |
| 2026-05-05 19:40 | 48.72538 | 9.31061 | 16027 ft | 374 kts | 348° |
| 2026-05-05 19:40 | 48.75159 | 9.30869 | 16819 ft | 381 kts | 358° |
| 2026-05-05 19:41 | 48.77835 | 9.31029 | 17628 ft | 386 kts | 0° |
| 2026-05-05 19:41 | 48.80500 | 9.31245 | 18378 ft | 390 kts | 0° |
| 2026-05-05 19:41 | 48.83237 | 9.31430 | 19035 ft | 394 kts | 0° |
| 2026-05-05 19:41 | 48.85967 | 9.31567 | 19687 ft | 399 kts | 360° |
| 2026-05-05 19:42 | 48.88765 | 9.31676 | 20345 ft | 403 kts | 360° |
| 2026-05-05 19:42 | 48.91589 | 9.31770 | 20996 ft | 408 kts | 360° |
| 2026-05-05 19:42 | 48.94449 | 9.31859 | 21639 ft | 412 kts | 0° |
| 2026-05-05 19:42 | 48.96364 | 9.31919 | 22072 ft | 415 kts | 0° |
| 2026-05-05 19:43 | 48.99283 | 9.32010 | 22722 ft | 419 kts | 0° |
| 2026-05-05 19:43 | 49.02182 | 9.32102 | 23319 ft | 424 kts | 1° |
| 2026-05-05 19:43 | 49.05143 | 9.32196 | 23620 ft | 426 kts | 1° |
| 2026-05-05 19:43 | 49.08123 | 9.32291 | 23798 ft | 427 kts | 1° |
| 2026-05-05 19:44 | 49.11080 | 9.32386 | 23822 ft | 428 kts | 1° |
| 2026-05-05 19:44 | 49.14059 | 9.32481 | 23822 ft | 427 kts | 1° |
| 2026-05-05 19:44 | 49.17010 | 9.32577 | 23821 ft | 413 kts | 1° |
| 2026-05-05 19:44 | 49.19878 | 9.32669 | 23825 ft | 421 kts | 0° |
| 2026-05-05 19:45 | 49.22850 | 9.32763 | 23819 ft | 425 kts | 0° |
| 2026-05-05 19:45 | 49.25776 | 9.32857 | 23821 ft | 424 kts | 1° |
| 2026-05-05 19:45 | 49.28737 | 9.32952 | 23819 ft | 424 kts | 1° |
| 2026-05-05 19:45 | 49.31669 | 9.33047 | 23821 ft | 424 kts | 1° |
| 2026-05-05 19:46 | 49.34616 | 9.33143 | 23820 ft | 424 kts | 1° |
| 2026-05-05 19:46 | 49.37579 | 9.33239 | 23824 ft | 424 kts | 1° |
| 2026-05-05 19:46 | 49.40542 | 9.33334 | 23821 ft | 424 kts | 1° |
| 2026-05-05 19:46 | 49.43459 | 9.33429 | 23818 ft | 424 kts | 1° |
| 2026-05-05 19:47 | 49.46423 | 9.33526 | 23753 ft | 425 kts | 1° |
| 2026-05-05 19:47 | 49.49390 | 9.33623 | 23516 ft | 423 kts | 1° |
| 2026-05-05 19:47 | 49.52293 | 9.33717 | 23267 ft | 421 kts | 1° |
| 2026-05-05 19:47 | 49.55233 | 9.33805 | 22951 ft | 418 kts | 0° |
| 2026-05-05 19:48 | 49.58101 | 9.33892 | 22504 ft | 414 kts | 0° |
| 2026-05-05 19:48 | 49.61041 | 9.33976 | 22799 ft | 429 kts | 1° |
| 2026-05-05 19:48 | 49.64019 | 9.34025 | 22856 ft | 422 kts | 0° |
| 2026-05-05 19:48 | 49.66912 | 9.34069 | 22558 ft | 416 kts | 0° |
| 2026-05-05 19:49 | 49.69810 | 9.34119 | 21978 ft | 412 kts | 0° |
| 2026-05-05 19:49 | 49.72652 | 9.34215 | 21356 ft | 409 kts | 5° |
| 2026-05-05 19:49 | 49.75420 | 9.35177 | 20720 ft | 406 kts | 22° |
| 2026-05-05 19:49 | 49.77834 | 9.37293 | 20094 ft | 402 kts | 39° |
| 2026-05-05 19:50 | 49.79745 | 9.40452 | 19450 ft | 397 kts | 58° |
| 2026-05-05 19:50 | 49.80925 | 9.44272 | 18844 ft | 392 kts | 73° |
| 2026-05-05 19:50 | 49.81763 | 9.48236 | 18207 ft | 392 kts | 73° |
| 2026-05-05 19:50 | 49.82601 | 9.52257 | 17643 ft | 388 kts | 73° |
| 2026-05-05 19:51 | 49.83406 | 9.56143 | 17329 ft | 377 kts | 73° |
| 2026-05-05 19:51 | 49.84198 | 9.59977 | 17057 ft | 364 kts | 73° |
| 2026-05-05 19:51 | 49.84949 | 9.63619 | 16855 ft | 344 kts | 73° |
| 2026-05-05 19:51 | 49.85652 | 9.67022 | 16662 ft | 326 kts | 73° |
| 2026-05-05 19:52 | 49.86332 | 9.70282 | 16495 ft | 308 kts | 73° |
| 2026-05-05 19:52 | 49.86972 | 9.73385 | 16209 ft | 296 kts | 73° |
| 2026-05-05 19:52 | 49.87592 | 9.76389 | 15681 ft | 294 kts | 71° |
| 2026-05-05 19:52 | 49.88624 | 9.79098 | 15097 ft | 293 kts | 44° |
| 2026-05-05 19:53 | 49.90292 | 9.80846 | 14573 ft | 289 kts | 17° |
| 2026-05-05 19:53 | 49.92256 | 9.81258 | 14221 ft | 280 kts | 349° |
| 2026-05-05 19:53 | 49.94052 | 9.80302 | 13882 ft | 269 kts | 322° |
| 2026-05-05 19:53 | 49.95297 | 9.78271 | 13535 ft | 260 kts | 295° |
| 2026-05-05 19:54 | 49.95786 | 9.75625 | 13131 ft | 253 kts | 274° |
| 2026-05-05 19:54 | 49.95971 | 9.72930 | 12762 ft | 252 kts | 274° |
| 2026-05-05 19:54 | 49.96152 | 9.70223 | 12407 ft | 250 kts | 274° |
| 2026-05-05 19:54 | 49.96332 | 9.67576 | 12049 ft | 249 kts | 274° |
| 2026-05-05 19:55 | 49.96515 | 9.64896 | 11697 ft | 247 kts | 274° |
| 2026-05-05 19:55 | 49.96699 | 9.62270 | 11422 ft | 244 kts | 274° |
| 2026-05-05 19:55 | 49.96885 | 9.59617 | 11226 ft | 246 kts | 274° |
| 2026-05-05 19:55 | 49.97067 | 9.57004 | 10932 ft | 245 kts | 274° |
| 2026-05-05 19:56 | 49.97249 | 9.54359 | 10576 ft | 244 kts | 274° |
| 2026-05-05 19:56 | 49.97507 | 9.51789 | 10248 ft | 245 kts | 285° |
| 2026-05-05 19:56 | 49.98123 | 9.49318 | 9923 ft | 244 kts | 289° |
| 2026-05-05 19:56 | 49.98765 | 9.46864 | 9547 ft | 243 kts | 289° |
| 2026-05-05 19:57 | 49.99394 | 9.44445 | 9213 ft | 241 kts | 289° |
| 2026-05-05 19:57 | 50.00019 | 9.42031 | 8844 ft | 240 kts | 289° |
| 2026-05-05 19:57 | 50.00637 | 9.39641 | 8479 ft | 240 kts | 289° |
| 2026-05-05 19:57 | 50.01256 | 9.37238 | 8150 ft | 238 kts | 289° |
| 2026-05-05 19:58 | 50.01860 | 9.34879 | 7813 ft | 237 kts | 289° |
| 2026-05-05 19:58 | 50.02467 | 9.32501 | 7499 ft | 236 kts | 289° |
| 2026-05-05 19:58 | 50.03071 | 9.30120 | 7175 ft | 235 kts | 289° |
| 2026-05-05 19:58 | 50.03665 | 9.27775 | 6961 ft | 231 kts | 289° |
| 2026-05-05 19:59 | 50.04254 | 9.25436 | 6843 ft | 236 kts | 289° |
| 2026-05-05 19:59 | 50.04852 | 9.23075 | 6810 ft | 233 kts | 289° |
| 2026-05-05 19:59 | 50.05442 | 9.20741 | 6811 ft | 234 kts | 289° |
| 2026-05-05 19:59 | 50.06040 | 9.18371 | 6798 ft | 233 kts | 289° |
| 2026-05-05 20:00 | 50.06633 | 9.16026 | 6596 ft | 232 kts | 289° |
| 2026-05-05 20:00 | 50.07217 | 9.13712 | 6311 ft | 232 kts | 288° |
| 2026-05-05 20:00 | 50.07808 | 9.11367 | 5991 ft | 231 kts | 290° |
| 2026-05-05 20:00 | 50.08588 | 9.09183 | 5710 ft | 232 kts | 303° |
| 2026-05-05 20:01 | 50.09701 | 9.07338 | 5455 ft | 235 kts | 319° |
| 2026-05-05 20:01 | 50.11045 | 9.05917 | 5237 ft | 235 kts | 323° |
| 2026-05-05 20:01 | 50.12417 | 9.04500 | 5083 ft | 240 kts | 323° |
| 2026-05-05 20:01 | 50.13811 | 9.03039 | 5007 ft | 239 kts | 323° |
| 2026-05-05 20:02 | 50.15155 | 9.01576 | 5015 ft | 234 kts | 315° |
| 2026-05-05 20:02 | 50.15989 | 8.99489 | 5044 ft | 226 kts | 279° |
| 2026-05-05 20:02 | 50.15826 | 8.97107 | 5057 ft | 224 kts | 244° |
| 2026-05-05 20:02 | 50.14973 | 8.95060 | 5043 ft | 228 kts | 233° |
| 2026-05-05 20:03 | 50.14104 | 8.92989 | 5071 ft | 228 kts | 243° |
| 2026-05-05 20:03 | 50.13502 | 8.90695 | 5092 ft | 227 kts | 249° |
| 2026-05-05 20:03 | 50.12950 | 8.88425 | 5071 ft | 222 kts | 249° |
| 2026-05-05 20:03 | 50.12410 | 8.86233 | 4969 ft | 209 kts | 248° |
| 2026-05-05 20:04 | 50.11921 | 8.84176 | 4809 ft | 201 kts | 249° |
| 2026-05-05 20:04 | 50.11446 | 8.82149 | 4536 ft | 194 kts | 250° |
| 2026-05-05 20:04 | 50.11000 | 8.80220 | 4246 ft | 187 kts | 249° |
| 2026-05-05 20:04 | 50.10548 | 8.78352 | 4019 ft | 181 kts | 249° |
| 2026-05-05 20:05 | 50.10116 | 8.76528 | 3786 ft | 180 kts | 250° |
| 2026-05-05 20:05 | 50.09683 | 8.74707 | 3531 ft | 181 kts | 249° |
| 2026-05-05 20:05 | 50.09226 | 8.72859 | 3251 ft | 182 kts | 249° |
| 2026-05-05 20:05 | 50.08773 | 8.71031 | 2983 ft | 183 kts | 249° |
| 2026-05-05 20:06 | 50.08341 | 8.69166 | 2673 ft | 181 kts | 250° |
| 2026-05-05 20:06 | 50.07924 | 8.67346 | 2395 ft | 178 kts | 250° |
| 2026-05-05 20:06 | 50.07497 | 8.65540 | 2125 ft | 179 kts | 249° |
| 2026-05-05 20:06 | 50.07058 | 8.63727 | 1899 ft | 174 kts | 248° |
| 2026-05-05 20:07 | 50.06653 | 8.62060 | 1662 ft | 157 kts | 249° |
| 2026-05-05 20:07 | 50.06310 | 8.60562 | 1454 ft | 136 kts | 249° |
| 2026-05-05 20:07 | 50.05981 | 8.59222 | 1246 ft | 133 kts | 249° |
| 2026-05-05 20:07 | 50.05652 | 8.57860 | 1075 ft | 135 kts | 249° |
| 2026-05-05 20:08 | 50.05325 | 8.56480 | 873 ft | 138 kts | 249° |
| 2026-05-05 20:08 | 50.04988 | 8.55077 | 673 ft | 139 kts | 250° |
| 2026-05-05 20:08 | 50.04657 | 8.53681 | 467 ft | 139 kts | 249° |
| 2026-05-05 20:08 | 50.04324 | 8.52299 | 343 ft | 127 kts | 250° |
| 2026-05-05 20:09 | 50.04115 | 8.51432 | 338 ft | 52 kts | 248° |
| 2026-05-05 20:09 | 50.03999 | 8.51057 | 329 ft | 30 kts | 227° |
| 2026-05-05 20:09 | 50.03904 | 8.50914 | 332 ft | 18 kts | 223° |
| 2026-05-05 20:09 | 50.03810 | 8.50836 | 333 ft | 12 kts | 169° |
| 2026-05-05 20:10 | 50.03781 | 8.50918 | 332 ft | 10 kts | 82° |
| 2026-05-05 20:10 | 50.03812 | 8.51057 | 332 ft | 17 kts | 68° |
| 2026-05-05 20:10 | 50.03856 | 8.51242 | 334 ft | 19 kts | 70° |
| 2026-05-05 20:10 | 50.03906 | 8.51449 | 340 ft | 21 kts | 70° |
| 2026-05-05 20:11 | 50.03959 | 8.51668 | 341 ft | 23 kts | 70° |
| 2026-05-05 20:11 | 50.04016 | 8.51905 | 342 ft | 24 kts | 70° |
| 2026-05-05 20:11 | 50.04076 | 8.52156 | 354 ft | 25 kts | 70° |
| 2026-05-05 20:11 | 50.04137 | 8.52413 | 350 ft | 26 kts | 69° |
| 2026-05-05 20:12 | 50.04202 | 8.52682 | 358 ft | 27 kts | 69° |
| 2026-05-05 20:12 | 50.04271 | 8.52973 | 365 ft | 33 kts | 69° |
| 2026-05-05 20:12 | 50.04356 | 8.53326 | 373 ft | 36 kts | 69° |
| 2026-05-05 20:12 | 50.04408 | 8.53708 | 370 ft | 37 kts | 84° |
| 2026-05-05 20:13 | 50.04435 | 8.54105 | 367 ft | 37 kts | 85° |
| 2026-05-05 20:13 | 50.04451 | 8.54476 | 367 ft | 30 kts | 100° |
| 2026-05-05 20:13 | 50.04339 | 8.54746 | 370 ft | 31 kts | 149° |
| 2026-05-05 20:13 | 50.04142 | 8.54868 | 368 ft | 19 kts | 159° |
| 2026-05-05 20:14 | 50.04074 | 8.54908 | 371 ft | 0 kts | 159° |
| 2026-05-05 20:14 | 50.04071 | 8.54910 | 371 ft | 2 kts | 159° |
| 2026-05-05 20:14 | 50.04042 | 8.54927 | 367 ft | 7 kts | 159° |
| 2026-05-05 20:14 | 50.04019 | 8.55012 | 367 ft | 16 kts | 79° |
| 2026-05-05 20:15 | 50.04075 | 8.55252 | 369 ft | 29 kts | 70° |
| 2026-05-05 20:15 | 50.04149 | 8.55566 | 368 ft | 32 kts | 69° |
| 2026-05-05 20:15 | 50.04229 | 8.55897 | 371 ft | 34 kts | 70° |
| 2026-05-05 20:15 | 50.04313 | 8.56247 | 371 ft | 35 kts | 69° |
| 2026-05-05 20:16 | 50.04397 | 8.56599 | 367 ft | 26 kts | 70° |
| 2026-05-05 20:16 | 50.04460 | 8.56839 | 370 ft | 19 kts | 50° |
| 2026-05-05 20:16 | 50.04592 | 8.56906 | 370 ft | 22 kts | 14° |
| 2026-05-05 20:16 | 50.04731 | 8.56989 | 367 ft | 18 kts | 24° |
| 2026-05-05 20:17 | 50.04836 | 8.57065 | 370 ft | 11 kts | 25° |
| 2026-05-05 20:17 | 50.04857 | 8.57080 | 367 ft | 4 kts | 25° |
| 2026-05-05 20:17 | 50.04894 | 8.57075 | 371 ft | 7 kts | 340° |
| 2026-05-05 20:17 | 50.04917 | 8.57066 | 372 ft | 2 kts | 10° |
| 2026-05-05 20:18 | 50.04916 | 8.57084 | 367 ft | 5 kts | 102° |
| 2026-05-05 20:18 | 50.04915 | 8.57092 | 367 ft | 0 kts | 97° |